Time;durP1;ratioP1;P1;durP2;ratioP2;P2;SDS_P1;SDS_P2;PMS_P1;PMS_P2;Temp;Humidity;BMP_temperature;BMP_pressure;BME280_temperature;BME280_humidity;BME280_pressure;Samples;Min_cycle;Max_cycle;Signal;HPM_P1;HPM_P2
2022/05/24 00:01:16;;;;;;;50.20;26.48;;;13.30;99.90;;;;;;5055423;28;20076;-79
2022/05/24 00:03:42;;;;;;;49.05;25.25;;;13.30;99.90;;;;;;5054268;28;20063;-79
2022/05/24 00:06:08;;;;;;;46.03;22.60;;;13.20;99.90;;;;;;5053998;28;20552;-79
2022/05/24 00:08:34;;;;;;;51.50;23.73;;;13.20;99.90;;;;;;5053808;28;20037;-80
2022/05/24 00:11:00;;;;;;;40.42;22.10;;;13.30;99.90;;;;;;5053763;28;20477;-81
2022/05/24 00:13:27;;;;;;;42.08;20.92;;;13.30;99.90;;;;;;5054048;28;20370;-81
2022/05/24 00:15:52;;;;;;;39.78;21.63;;;13.30;99.90;;;;;;5054959;28;20052;-81
2022/05/24 00:18:22;;;;;;;37.90;18.85;;;13.30;99.90;;;;;;5037375;28;20132;-80
2022/05/24 00:20:51;;;;;;;39.97;20.00;;;13.20;99.90;;;;;;5054916;28;20049;-81
2022/05/24 00:23:18;;;;;;;35.00;17.95;;;13.20;99.90;;;;;;5054964;28;20048;-81
2022/05/24 00:25:47;;;;;;;37.28;17.63;;;13.20;99.90;;;;;;5036867;28;20143;-81
2022/05/24 00:28:15;;;;;;;33.90;15.27;;;13.20;99.90;;;;;;5036935;28;20044;-81
2022/05/24 00:30:43;;;;;;;34.22;14.38;;;13.10;99.90;;;;;;5054821;28;20037;-83
2022/05/24 00:33:09;;;;;;;27.63;13.85;;;13.10;99.90;;;;;;5036862;28;20045;-80
2022/05/24 00:35:35;;;;;;;23.45;12.73;;;13.10;99.90;;;;;;5036952;28;20037;-81
2022/05/24 00:38:01;;;;;;;26.60;12.23;;;13.00;99.90;;;;;;5036709;28;20049;-80
2022/05/24 00:40:45;;;;;;;26.25;11.93;;;13.00;99.90;;;;;;5036802;28;20049;-81
2022/05/24 00:43:38;;;;;;;28.10;12.10;;;13.00;99.90;;;;;;5054605;28;20048;-80
2022/05/24 00:46:09;;;;;;;23.17;10.70;;;13.00;99.90;;;;;;5054307;28;20080;-80
2022/05/24 00:48:38;;;;;;;19.60;10.50;;;13.00;99.90;;;;;;5053820;28;20041;-80
2022/05/24 00:51:08;;;;;;;19.35;11.10;;;13.00;99.90;;;;;;5036452;28;20049;-80
2022/05/24 00:53:42;;;;;;;24.67;11.77;;;13.00;99.90;;;;;;5054364;28;20489;-81
2022/05/24 00:56:18;;;;;;;23.98;11.15;;;13.00;99.90;;;;;;5036436;28;20052;-81
2022/05/24 00:59:12;;;;;;;22.98;10.88;;;13.10;99.90;;;;;;5036335;28;20091;-81
2022/05/24 01:01:44;;;;;;;24.50;12.75;;;13.00;99.90;;;;;;5027007;28;20056;-81
2022/05/24 01:04:13;;;;;;;28.15;12.07;;;13.10;99.90;;;;;;5036382;28;20087;-81
2022/05/24 01:06:39;;;;;;;22.70;13.43;;;13.10;99.90;;;;;;5036587;28;20393;-84
2022/05/24 01:09:08;;;;;;;25.73;13.35;;;13.10;99.90;;;;;;5036101;28;20056;-81
2022/05/24 01:11:38;;;;;;;28.75;13.35;;;13.10;99.90;;;;;;5036361;28;20281;-81
2022/05/24 01:14:07;;;;;;;27.45;13.43;;;13.00;99.90;;;;;;5036427;28;20262;-81
2022/05/24 01:16:34;;;;;;;27.65;14.25;;;13.00;99.90;;;;;;5040781;28;20053;-81
2022/05/24 01:19:04;;;;;;;25.42;14.82;;;13.00;99.90;;;;;;5053870;28;20415;-81
2022/05/24 01:21:31;;;;;;;29.88;14.20;;;13.00;99.90;;;;;;5052824;28;20041;-81
2022/05/24 01:24:23;;;;;;;24.02;13.15;;;13.00;99.90;;;;;;5053824;28;20053;-81
2022/05/24 01:26:54;;;;;;;26.08;13.77;;;13.00;99.90;;;;;;5052820;28;20045;-81
2022/05/24 01:29:22;;;;;;;25.02;13.45;;;12.90;99.90;;;;;;5052578;28;20049;-81
2022/05/24 01:37:20;;;;;;;24.88;12.98;;;12.90;99.90;;;;;;5052415;28;20045;-81
2022/05/24 01:39:50;;;;;;;24.75;14.32;;;13.00;99.90;;;;;;5053625;28;20048;-81
2022/05/24 01:42:17;;;;;;;29.60;14.40;;;12.90;99.90;;;;;;5053906;28;20057;-81
2022/05/24 01:44:51;;;;;;;28.00;14.00;;;12.90;99.90;;;;;;5053407;28;20106;-81
2022/05/24 01:47:18;;;;;;;29.17;14.73;;;12.90;99.90;;;;;;5052686;28;20166;-81
2022/05/24 01:49:48;;;;;;;26.25;14.75;;;12.80;99.90;;;;;;5052259;28;20078;-81
2022/05/24 01:52:46;;;;;;;23.60;12.60;;;12.90;99.90;;;;;;5052333;28;20080;-81
2022/05/24 01:55:19;;;;;;;29.90;13.80;;;12.80;99.90;;;;;;5043198;28;20101;-81
2022/05/24 01:57:48;;;;;;;23.95;13.88;;;12.80;99.90;;;;;;5053415;28;20404;-81
2022/05/24 02:00:15;;;;;;;28.10;13.65;;;12.80;99.90;;;;;;5055748;28;20045;-81
2022/05/24 02:02:45;;;;;;;25.55;13.70;;;12.90;99.90;;;;;;5056283;28;20057;-81
2022/05/24 02:05:12;;;;;;;28.45;14.35;;;12.80;99.90;;;;;;5056061;28;20362;-81
2022/05/24 02:07:39;;;;;;;30.73;16.13;;;12.80;99.90;;;;;;5057538;28;20065;-81
2022/05/24 02:10:05;;;;;;;34.15;16.42;;;12.80;99.90;;;;;;5057509;28;20049;-81
2022/05/24 02:12:42;;;;;;;34.95;17.00;;;12.90;99.90;;;;;;5056294;28;20550;-81
2022/05/24 02:15:17;;;;;;;32.30;16.40;;;12.90;99.90;;;;;;5057445;28;20100;-81
2022/05/24 02:18:08;;;;;;;40.60;18.42;;;12.90;99.90;;;;;;5057103;28;20096;-81
2022/05/24 02:20:37;;;;;;;35.75;19.48;;;12.90;99.90;;;;;;5039604;28;20048;-81
2022/05/24 02:23:03;;;;;;;41.10;17.88;;;12.90;99.90;;;;;;5039304;28;20056;-81
2022/05/24 02:25:44;;;;;;;34.83;18.63;;;12.90;99.90;;;;;;5057080;28;20427;-81
2022/05/24 02:28:11;;;;;;;36.92;18.33;;;13.00;99.90;;;;;;5057139;28;20061;-82
2022/05/24 02:30:41;;;;;;;39.03;18.30;;;13.00;99.90;;;;;;5056923;28;20045;-83
2022/05/24 02:33:10;;;;;;;41.13;19.35;;;12.90;99.90;;;;;;5039097;28;20041;-81
2022/05/24 02:35:36;;;;;;;40.20;19.05;;;13.00;99.90;;;;;;5056998;28;20036;-81
2022/05/24 02:38:02;;;;;;;44.53;20.45;;;13.00;99.90;;;;;;5056974;28;20057;-79
2022/05/24 02:43:12;;;;;;;47.55;21.63;;;13.00;99.90;;;;;;5056618;28;20071;-79
2022/05/24 02:45:37;;;;;;;46.20;21.23;;;13.00;99.90;;;;;;5038656;28;20053;-79
2022/05/24 02:48:04;;;;;;;55.33;22.10;;;13.00;99.90;;;;;;5038907;28;20049;-80
2022/05/24 02:50:30;;;;;;;47.63;22.60;;;13.00;99.90;;;;;;5056707;28;20033;-79
2022/05/24 02:52:56;;;;;;;47.10;22.60;;;13.00;99.90;;;;;;5056367;28;20128;-81
2022/05/24 02:55:22;;;;;;;57.60;24.00;;;13.00;99.90;;;;;;5038849;28;20055;-81
2022/05/24 02:57:48;;;;;;;52.03;23.05;;;13.00;99.90;;;;;;5038587;28;20045;-81
2022/05/24 03:00:20;;;;;;;54.13;25.02;;;13.00;99.90;;;;;;5056302;28;20047;-81
2022/05/24 03:02:46;;;;;;;63.67;24.83;;;13.00;99.90;;;;;;5038870;28;20472;-81
2022/05/24 03:05:13;;;;;;;60.60;25.02;;;13.00;99.90;;;;;;5038199;28;20412;-81
2022/05/24 03:10:24;;;;;;;63.10;25.70;;;13.00;99.90;;;;;;5037686;28;20103;-81
2022/05/24 03:15:36;;;;;;;71.18;27.25;;;13.00;99.90;;;;;;5038164;28;20086;-81
2022/05/24 03:18:01;;;;;;;68.90;28.00;;;13.00;99.90;;;;;;5038124;28;20063;-81
2022/05/24 03:20:27;;;;;;;76.30;29.80;;;13.00;99.90;;;;;;5038368;28;20048;-81
2022/05/24 03:22:53;;;;;;;76.80;30.10;;;13.00;99.90;;;;;;5038316;28;20123;-82
2022/05/24 03:25:18;;;;;;;81.47;30.05;;;13.00;99.90;;;;;;5037972;28;20041;-82
2022/05/24 03:27:46;;;;;;;91.78;31.48;;;13.00;99.90;;;;;;5038442;28;20485;-82
2022/05/24 03:30:13;;;;;;;91.35;31.95;;;13.10;99.90;;;;;;5037896;28;20442;-81
2022/05/24 03:32:39;;;;;;;88.90;33.58;;;13.10;99.90;;;;;;5055544;28;20081;-81
2022/05/24 03:35:07;;;;;;;86.78;34.60;;;13.10;99.90;;;;;;5037540;28;20113;-81
2022/05/24 03:37:33;;;;;;;96.82;35.83;;;13.20;99.90;;;;;;5037856;28;20057;-82
2022/05/24 03:39:58;;;;;;;99.57;37.17;;;13.20;99.90;;;;;;5037579;28;20064;-82
2022/05/24 03:42:24;;;;;;;108.78;39.45;;;13.20;99.90;;;;;;5055565;28;20041;-82
2022/05/24 03:44:50;;;;;;;104.82;37.83;;;13.20;99.90;;;;;;5037444;28;20098;-83
2022/05/24 03:47:15;;;;;;;110.15;40.42;;;13.20;99.90;;;;;;5036790;28;20037;-81
2022/05/24 03:49:41;;;;;;;103.15;38.97;;;13.20;99.90;;;;;;5055236;28;20108;-80
2022/05/24 03:52:07;;;;;;;107.63;39.30;;;13.20;99.90;;;;;;5037473;28;20454;-81
2022/05/24 03:54:32;;;;;;;109.25;39.70;;;13.20;99.90;;;;;;5055230;28;20041;-80
2022/05/24 03:59:44;;;;;;;110.57;39.58;;;13.20;99.90;;;;;;5037338;28;20132;-81
2022/05/24 04:02:09;;;;;;;99.97;38.22;;;13.20;99.90;;;;;;5037460;28;20481;-81
2022/05/24 04:04:35;;;;;;;108.43;39.60;;;13.20;99.90;;;;;;5037323;28;20080;-81
2022/05/24 04:07:01;;;;;;;97.88;36.47;;;13.20;99.90;;;;;;5037152;28;20045;-81
2022/05/24 04:09:27;;;;;;;102.05;37.53;;;13.20;99.90;;;;;;5037040;28;20049;-81
2022/05/24 04:11:56;;;;;;;98.13;37.38;;;13.20;99.90;;;;;;5037150;28;20041;-81
2022/05/24 04:14:21;;;;;;;96.15;36.25;;;13.20;99.90;;;;;;5036989;28;20045;-81
2022/05/24 04:16:47;;;;;;;100.25;36.22;;;13.30;99.90;;;;;;5054665;28;20064;-82
2022/05/24 04:19:12;;;;;;;105.38;38.78;;;13.30;99.90;;;;;;5054865;28;20497;-81
2022/05/24 04:21:38;;;;;;;100.07;36.63;;;13.30;99.90;;;;;;5036714;28;20049;-81
2022/05/24 04:24:04;;;;;;;98.57;35.97;;;13.30;99.90;;;;;;5036468;28;20049;-81
2022/05/24 04:26:30;;;;;;;90.32;34.88;;;13.30;99.90;;;;;;5036672;28;20060;-81
2022/05/24 04:28:57;;;;;;;73.95;28.73;;;13.30;99.90;;;;;;5055109;28;20041;-82
2022/05/24 04:31:23;;;;;;;65.20;25.70;;;13.30;99.90;;;;;;5037010;28;20558;-82
2022/05/24 04:33:49;;;;;;;57.72;23.50;;;13.40;99.90;;;;;;5036707;28;20037;-81
2022/05/24 04:36:15;;;;;;;49.47;23.23;;;13.30;99.90;;;;;;5036603;28;20068;-81
2022/05/24 04:38:41;;;;;;;51.85;22.55;;;13.30;99.90;;;;;;5036817;28;20048;-81
2022/05/24 04:43:52;;;;;;;60.22;25.10;;;13.30;99.90;;;;;;5054423;28;20049;-81
2022/05/24 04:46:18;;;;;;;60.00;24.23;;;13.30;99.90;;;;;;5036577;28;20052;-81
2022/05/24 04:48:43;;;;;;;61.78;23.52;;;13.30;99.90;;;;;;5036507;28;20467;-81
2022/05/24 04:51:09;;;;;;;55.10;23.58;;;13.30;99.90;;;;;;5036387;28;20040;-81
2022/05/24 04:53:35;;;;;;;50.92;23.73;;;13.40;99.90;;;;;;5036469;28;20052;-81
2022/05/24 04:56:01;;;;;;;60.00;24.33;;;13.40;99.90;;;;;;5036610;28;20115;-81
2022/05/24 04:58:26;;;;;;;55.50;22.80;;;13.40;99.90;;;;;;5036188;28;20448;-81
2022/05/24 05:00:52;;;;;;;56.05;22.67;;;13.40;99.90;;;;;;5036378;28;20084;-81
2022/05/24 05:03:20;;;;;;;48.53;19.80;;;13.30;99.90;;;;;;5036171;28;20037;-84
2022/05/24 05:05:48;;;;;;;51.15;20.20;;;13.40;99.90;;;;;;5036046;28;20084;-82
2022/05/24 05:08:14;;;;;;;49.42;19.15;;;13.40;99.90;;;;;;5036487;28;20041;-82
2022/05/24 05:10:40;;;;;;;49.67;18.33;;;13.40;99.90;;;;;;5054088;28;20041;-82
2022/05/24 05:13:06;;;;;;;51.05;18.42;;;13.40;99.90;;;;;;5035958;28;20091;-82
2022/05/24 05:15:37;;;;;;;51.63;17.70;;;13.50;99.90;;;;;;5036149;28;20110;-82
2022/05/24 05:18:13;;;;;;;49.97;20.55;;;13.40;99.90;;;;;;5036079;28;20053;-81
2022/05/24 05:20:41;;;;;;;40.20;17.60;;;13.50;99.90;;;;;;5035936;28;20094;-81
2022/05/24 05:23:09;;;;;;;46.17;18.23;;;13.50;99.90;;;;;;5053871;28;20075;-81
2022/05/24 05:25:35;;;;;;;40.50;16.95;;;13.50;99.90;;;;;;5035663;28;20048;-81
2022/05/24 05:28:02;;;;;;;44.83;16.83;;;13.60;99.90;;;;;;5035872;28;20453;-86
2022/05/24 05:33:14;;;;;;;41.90;15.73;;;13.70;99.90;;;;;;5053098;28;20475;-82
2022/05/24 05:35:42;;;;;;;37.40;14.85;;;13.80;99.90;;;;;;5035863;28;20041;-82
2022/05/24 05:38:08;;;;;;;41.13;14.60;;;13.80;99.90;;;;;;5035883;28;20044;-85
2022/05/24 05:40:33;;;;;;;33.90;13.98;;;13.80;99.90;;;;;;5035841;28;20401;-82
2022/05/24 05:42:59;;;;;;;44.53;14.65;;;13.90;99.90;;;;;;5035951;28;20099;-81
2022/05/24 05:45:24;;;;;;;31.90;14.00;;;13.90;99.90;;;;;;5035525;28;20051;-82
2022/05/24 05:47:52;;;;;;;42.03;15.02;;;13.90;99.90;;;;;;5035601;28;20041;-82
2022/05/24 05:50:18;;;;;;;36.72;14.93;;;14.00;99.90;;;;;;5053497;28;20045;-81
2022/05/24 05:52:44;;;;;;;38.30;13.98;;;14.00;99.90;;;;;;5053489;28;20045;-81
2022/05/24 05:55:09;;;;;;;35.55;14.82;;;13.90;99.90;;;;;;5053385;28;20032;-80
2022/05/24 05:57:35;;;;;;;34.67;14.27;;;13.90;99.90;;;;;;5035698;28;20443;-81
2022/05/24 06:00:01;;;;;;;36.28;15.35;;;13.90;99.90;;;;;;5035560;28;20053;-82
2022/05/24 06:02:27;;;;;;;38.53;15.38;;;14.00;99.90;;;;;;5053123;28;20080;-82
2022/05/24 06:04:52;;;;;;;38.13;14.90;;;13.90;99.90;;;;;;5035316;28;20076;-81
2022/05/24 06:07:18;;;;;;;40.13;15.20;;;13.90;99.90;;;;;;5035598;28;20049;-83
2022/05/24 06:09:44;;;;;;;42.15;16.35;;;13.90;99.90;;;;;;5035244;28;20049;-82
2022/05/24 06:12:10;;;;;;;36.70;17.58;;;13.90;99.90;;;;;;5035287;28;20048;-82
2022/05/24 06:14:35;;;;;;;37.60;17.75;;;14.00;99.90;;;;;;5035379;28;20105;-81
2022/05/24 06:17:01;;;;;;;35.53;17.83;;;14.00;99.90;;;;;;5051995;28;20088;-83
2022/05/24 06:19:26;;;;;;;41.92;18.42;;;14.00;99.90;;;;;;5034990;28;20084;-79
2022/05/24 06:21:52;;;;;;;39.33;17.95;;;13.90;99.90;;;;;;5035303;28;20118;-79
2022/05/24 06:24:18;;;;;;;41.92;18.33;;;14.00;99.90;;;;;;5034867;28;20135;-81
2022/05/24 06:26:43;;;;;;;44.58;19.17;;;14.00;99.90;;;;;;5034978;28;20041;-80
2022/05/24 06:29:09;;;;;;;44.88;19.13;;;14.10;99.90;;;;;;5035076;28;20048;-81
2022/05/24 06:31:34;;;;;;;45.13;19.60;;;14.00;99.90;;;;;;5052658;28;20041;-81
2022/05/24 06:34:00;;;;;;;50.05;21.25;;;14.10;99.90;;;;;;5035068;28;20535;-81
2022/05/24 06:36:26;;;;;;;44.38;20.10;;;14.10;99.90;;;;;;5034941;28;20131;-83
2022/05/24 06:38:51;;;;;;;49.92;20.45;;;14.10;99.90;;;;;;5034880;28;20052;-81
2022/05/24 06:41:17;;;;;;;50.08;21.15;;;14.10;99.90;;;;;;5052831;28;20048;-82
2022/05/24 06:43:43;;;;;;;49.88;23.58;;;14.10;99.90;;;;;;5052562;28;20049;-81
2022/05/24 06:46:09;;;;;;;55.83;23.38;;;14.20;99.90;;;;;;5036489;28;20132;-81
2022/05/24 06:48:40;;;;;;;58.80;25.30;;;14.20;99.90;;;;;;5038415;28;20091;-82
2022/05/24 06:51:14;;;;;;;65.32;25.38;;;14.20;99.90;;;;;;5056431;28;20063;-82
2022/05/24 06:53:42;;;;;;;59.13;24.02;;;14.30;99.90;;;;;;5038383;28;20439;-83
2022/05/24 06:56:08;;;;;;;63.15;24.77;;;14.30;99.90;;;;;;5038550;28;20048;-81
2022/05/24 06:58:34;;;;;;;61.63;25.05;;;14.30;99.90;;;;;;5038304;28;20055;-80
2022/05/24 07:03:45;;;;;;;57.63;24.02;;;14.30;99.90;;;;;;5038217;28;20134;-81
2022/05/24 07:06:12;;;;;;;58.00;23.40;;;14.20;99.90;;;;;;5038538;28;20104;-80
2022/05/24 07:08:39;;;;;;;55.63;22.20;;;14.20;99.90;;;;;;5038533;28;20485;-80
2022/05/24 07:11:05;;;;;;;53.58;21.75;;;14.20;99.90;;;;;;5038420;28;20049;-81
2022/05/24 07:13:31;;;;;;;50.53;20.67;;;14.20;99.90;;;;;;5056199;28;20045;-81
2022/05/24 07:15:56;;;;;;;43.97;18.65;;;14.30;99.90;;;;;;5037905;28;20488;-81
2022/05/24 07:18:25;;;;;;;42.35;18.95;;;14.30;99.90;;;;;;5038184;28;20049;-81
2022/05/24 07:20:50;;;;;;;36.28;16.48;;;14.30;99.90;;;;;;5038378;28;20116;-81
2022/05/24 07:23:18;;;;;;;32.83;13.80;;;14.40;99.90;;;;;;5037989;28;20457;-81
2022/05/24 07:25:46;;;;;;;27.45;12.68;;;14.30;99.90;;;;;;5037874;28;20063;-81
2022/05/24 07:28:15;;;;;;;23.48;12.25;;;14.40;99.90;;;;;;5056036;28;20041;-80
2022/05/24 07:30:41;;;;;;;25.27;11.65;;;14.40;99.90;;;;;;5037840;28;20124;-81
2022/05/24 07:33:07;;;;;;;28.15;10.63;;;14.40;99.90;;;;;;5038120;28;20084;-81
2022/05/24 07:35:33;;;;;;;32.78;11.75;;;14.40;99.90;;;;;;5055635;28;20506;-81
2022/05/24 07:37:59;;;;;;;29.20;12.05;;;14.40;99.90;;;;;;5038001;28;20081;-81
2022/05/24 07:46:02;;;;;;;27.42;11.32;;;14.40;99.90;;;;;;5037593;28;20464;-81
2022/05/24 07:48:29;;;;;;;27.30;10.70;;;14.40;99.90;;;;;;5055492;28;20131;-81
2022/05/24 07:50:55;;;;;;;28.08;11.55;;;14.30;99.90;;;;;;5055625;28;20052;-81
2022/05/24 07:53:21;;;;;;;30.10;11.82;;;14.40;99.90;;;;;;5037659;28;20048;-81
2022/05/24 07:55:47;;;;;;;25.75;12.25;;;14.30;99.90;;;;;;5037348;28;20052;-81
2022/05/24 07:58:13;;;;;;;30.83;13.57;;;14.40;99.90;;;;;;5055254;28;20428;-81
2022/05/24 08:00:39;;;;;;;33.47;13.35;;;14.50;99.90;;;;;;5037609;28;20060;-81
2022/05/24 08:03:06;;;;;;;32.65;13.88;;;14.70;99.90;;;;;;5037198;28;20049;-81
2022/05/24 08:05:34;;;;;;;26.25;12.85;;;14.80;99.90;;;;;;5037173;28;20052;-81
2022/05/24 08:08:00;;;;;;;29.52;12.88;;;14.90;99.90;;;;;;5055036;28;20083;-80
2022/05/24 08:10:28;;;;;;;30.17;13.40;;;14.90;99.90;;;;;;5037529;28;20053;-81
2022/05/24 08:12:54;;;;;;;29.13;13.05;;;14.90;99.90;;;;;;5037105;28;20053;-81
2022/05/24 08:15:20;;;;;;;35.40;12.85;;;14.90;99.90;;;;;;5037149;28;20037;-80
2022/05/24 08:17:46;;;;;;;27.65;13.55;;;15.00;99.90;;;;;;5054647;28;20102;-81
2022/05/24 08:20:13;;;;;;;24.92;12.98;;;14.90;99.90;;;;;;5037009;28;20106;-81
2022/05/24 08:22:40;;;;;;;30.70;13.43;;;14.90;99.90;;;;;;5037276;28;20465;-81
2022/05/24 08:25:08;;;;;;;28.65;13.82;;;14.90;99.90;;;;;;5036889;28;20170;-81
2022/05/24 08:27:34;;;;;;;26.15;13.48;;;14.90;99.90;;;;;;5037228;28;20048;-81
2022/05/24 08:30:01;;;;;;;33.00;13.20;;;15.00;99.90;;;;;;5037063;28;20045;-81
2022/05/24 08:32:26;;;;;;;33.53;13.73;;;15.20;99.90;;;;;;5054737;28;20127;-81
2022/05/24 08:34:52;;;;;;;21.35;12.77;;;15.20;99.90;;;;;;5036962;28;20123;-81
2022/05/24 08:37:18;;;;;;;25.27;13.73;;;15.30;99.90;;;;;;5054735;28;20037;-81
2022/05/24 08:39:44;;;;;;;29.83;14.20;;;15.30;99.90;;;;;;5036723;28;20107;-81
2022/05/24 08:42:41;;;;;;;26.10;11.93;;;15.20;99.90;;;;;;5036503;28;20104;-81
2022/05/24 08:48:22;;;;;;;28.08;13.13;;;15.20;99.90;;;;;;5036617;28;20080;-81
2022/05/24 08:50:56;;;;;;;24.13;12.75;;;15.20;99.90;;;;;;5036672;28;20045;-81
2022/05/24 08:53:35;;;;;;;31.77;12.88;;;15.30;99.90;;;;;;5054202;28;20041;-81
2022/05/24 08:56:04;;;;;;;28.67;12.93;;;15.40;99.90;;;;;;5036526;28;20142;-81
2022/05/24 08:58:48;;;;;;;25.08;11.50;;;15.50;99.90;;;;;;5036189;28;20114;-81
2022/05/24 09:01:21;;;;;;;27.52;13.73;;;15.50;99.90;;;;;;5054155;28;20041;-81
2022/05/24 09:03:47;;;;;;;32.92;13.20;;;15.40;99.90;;;;;;5036302;28;20135;-81
2022/05/24 09:06:43;;;;;;;24.20;11.77;;;15.30;99.90;;;;;;5054182;28;20477;-81
2022/05/24 09:09:20;;;;;;;25.95;12.63;;;15.10;99.90;;;;;;5035739;28;20037;-81
2022/05/24 09:12:07;;;;;;;38.13;13.50;;;15.00;99.90;;;;;;5036073;28;20052;-83
2022/05/24 09:14:42;;;;;;;33.28;14.82;;;14.60;99.90;;;;;;5036216;28;20049;-83
2022/05/24 09:17:36;;;;;;;34.55;16.00;;;14.40;99.90;;;;;;5035778;28;20106;-83
2022/05/24 09:20:14;;;;;;;35.42;16.25;;;14.20;99.90;;;;;;5036180;28;20053;-82
2022/05/24 09:22:39;;;;;;;27.85;13.90;;;14.00;99.90;;;;;;5053947;28;20033;-82
2022/05/24 09:25:05;;;;;;;31.42;15.15;;;13.80;99.90;;;;;;5035704;28;20135;-82
2022/05/24 09:27:49;;;;;;;33.30;15.73;;;13.70;99.90;;;;;;5035813;28;20059;-82
2022/05/24 09:30:45;;;;;;;32.67;15.07;;;13.70;99.90;;;;;;5035759;28;20411;-81
2022/05/24 09:33:22;;;;;;;30.50;15.35;;;13.70;99.90;;;;;;5019581;28;20552;-81
2022/05/24 09:35:52;;;;;;;37.97;17.55;;;13.70;99.90;;;;;;5053463;28;20073;-81
2022/05/24 09:38:18;;;;;;;30.00;16.48;;;13.80;99.90;;;;;;5053758;28;20122;-81
2022/05/24 09:40:46;;;;;;;35.08;17.58;;;14.00;99.90;;;;;;5035345;28;20104;-81
2022/05/24 09:43:29;;;;;;;42.90;18.10;;;14.10;99.90;;;;;;5035541;28;20103;-81
2022/05/24 09:46:02;;;;;;;29.45;16.05;;;14.30;99.90;;;;;;5035450;28;20120;-81
2022/05/24 09:48:31;;;;;;;23.98;12.35;;;14.40;99.90;;;;;;5035954;28;20041;-81
2022/05/24 09:50:59;;;;;;;23.65;12.77;;;14.40;99.90;;;;;;5035698;28;20451;-81
2022/05/24 09:53:30;;;;;;;28.90;14.20;;;14.50;99.90;;;;;;5035428;28;20052;-81
2022/05/24 09:56:21;;;;;;;29.48;13.95;;;14.60;99.90;;;;;;5035669;28;20534;-81
2022/05/24 09:58:54;;;;;;;23.85;11.60;;;14.70;99.90;;;;;;5026481;28;20053;-81
2022/05/24 10:01:49;;;;;;;20.08;10.52;;;14.50;99.90;;;;;;5053270;28;20059;-82
2022/05/24 10:04:36;;;;;;;25.05;11.20;;;14.80;99.90;;;;;;5051157;28;20057;-81
2022/05/24 10:07:07;;;;;;;26.40;13.43;;;15.10;99.90;;;;;;5035453;28;20488;-81
2022/05/24 10:09:41;;;;;;;18.75;10.32;;;15.20;99.90;;;;;;5053195;28;20112;-82
2022/05/24 10:12:17;;;;;;;26.02;12.77;;;15.50;99.90;;;;;;5053080;28;20129;-81
2022/05/24 10:15:07;;;;;;;20.70;10.32;;;15.80;99.90;;;;;;5053390;28;20119;-82
2022/05/24 10:17:42;;;;;;;18.90;10.10;;;15.80;99.90;;;;;;5035290;28;20103;-81
2022/05/24 10:20:25;;;;;;;22.00;9.82;;;16.20;99.90;;;;;;5035188;28;20052;-81
2022/05/24 10:23:13;;;;;;;20.08;11.88;;;16.30;99.90;;;;;;5039345;28;20485;-81
2022/05/24 10:26:11;;;;;;;20.17;9.57;;;16.60;99.90;;;;;;5039086;28;20128;-81
2022/05/24 10:29:05;;;;;;;17.92;10.13;;;16.80;99.90;;;;;;5039098;28;20053;-81
2022/05/24 10:31:41;;;;;;;20.45;9.75;;;16.60;99.90;;;;;;5039001;28;20049;-81
2022/05/24 10:40:33;;;;;;;14.35;6.63;;;15.00;99.90;;;;;;5038730;28;20087;-82
2022/05/24 10:43:15;;;;;;;11.20;5.40;;;14.60;99.90;;;;;;5038958;28;20385;-81
2022/05/24 10:45:52;;;;;;;16.80;6.43;;;14.40;99.90;;;;;;5056783;28;20074;-81
2022/05/24 10:48:45;;;;;;;17.60;8.20;;;14.30;99.90;;;;;;5056497;28;20428;-81
2022/05/24 10:51:23;;;;;;;20.48;10.30;;;14.30;99.90;;;;;;5038962;28;20060;-81
2022/05/24 10:53:58;;;;;;;18.13;10.55;;;14.50;99.90;;;;;;5038589;28;20130;-81
2022/05/24 10:56:48;;;;;;;23.20;11.07;;;14.70;99.90;;;;;;5039110;28;20056;-81
2022/05/24 10:59:32;;;;;;;28.42;12.27;;;14.90;99.90;;;;;;5038603;28;20481;-81
2022/05/24 11:02:07;;;;;;;31.75;13.60;;;15.20;99.90;;;;;;5038762;28;20127;-81
2022/05/24 11:04:47;;;;;;;33.92;15.18;;;15.60;99.90;;;;;;5038210;28;20461;-81
2022/05/24 11:07:18;;;;;;;28.95;13.15;;;15.70;99.90;;;;;;5038327;28;20041;-82
2022/05/24 11:09:56;;;;;;;27.80;12.57;;;15.40;99.90;;;;;;5038691;28;20117;-82
2022/05/24 11:12:28;;;;;;;19.50;7.10;;;15.20;99.90;;;;;;5056393;28;20056;-82
2022/05/24 11:15:15;;;;;;;7.07;2.90;;;14.80;99.90;;;;;;5038157;28;20044;-82
2022/05/24 11:17:40;;;;;;;14.73;2.92;;;14.60;99.90;;;;;;5037982;28;20049;-82
2022/05/24 11:20:08;;;;;;;5.25;2.15;;;14.40;99.90;;;;;;5056120;28;20107;-82
2022/05/24 11:22:42;;;;;;;10.98;2.85;;;14.40;99.90;;;;;;5055862;28;20554;-82
2022/05/24 11:25:31;;;;;;;5.68;3.05;;;14.70;99.90;;;;;;5055963;28;20044;-81
2022/05/24 11:27:56;;;;;;;10.82;4.82;;;14.90;99.90;;;;;;5037976;28;20049;-81
2022/05/24 11:30:28;;;;;;;8.50;3.78;;;15.00;99.90;;;;;;5038231;28;20048;-81
2022/05/24 11:33:05;;;;;;;8.27;4.30;;;15.10;99.90;;;;;;5055287;28;20041;-81
2022/05/24 11:35:42;;;;;;;11.88;5.35;;;15.10;99.90;;;;;;5037881;28;20115;-81
2022/05/24 11:38:16;;;;;;;13.13;5.43;;;15.10;99.90;;;;;;5037786;28;20109;-81
2022/05/24 11:40:54;;;;;;;13.02;5.32;;;15.00;99.90;;;;;;5055850;28;20045;-81
2022/05/24 11:43:35;;;;;;;17.20;5.40;;;14.90;99.90;;;;;;5037974;28;20048;-81
2022/05/24 11:46:10;;;;;;;13.05;5.72;;;14.90;99.90;;;;;;5037580;28;20045;-81
2022/05/24 11:48:46;;;;;;;15.27;5.90;;;14.80;99.90;;;;;;5037576;28;20041;-81
2022/05/24 11:51:33;;;;;;;13.80;5.65;;;14.70;99.90;;;;;;5037728;28;20059;-81
2022/05/24 11:54:01;;;;;;;9.85;4.10;;;14.50;99.90;;;;;;5037667;28;20565;-81
2022/05/24 11:56:28;;;;;;;10.07;4.57;;;14.30;99.90;;;;;;5037301;28;20106;-80
2022/05/24 11:59:05;;;;;;;9.10;3.40;;;14.10;99.90;;;;;;5055505;28;20047;-79
2022/05/24 12:01:36;;;;;;;7.20;4.00;;;14.30;99.90;;;;;;5037413;28;20052;-79
2022/05/24 12:09:59;;;;;;;9.27;4.28;;;15.30;99.90;;;;;;5037179;28;20051;-81
2022/05/24 12:12:38;;;;;;;10.50;4.50;;;15.60;99.90;;;;;;5037398;28;20049;-81
2022/05/24 12:15:21;;;;;;;14.13;4.50;;;15.80;99.90;;;;;;5037202;28;20047;-81
2022/05/24 12:18:11;;;;;;;10.02;4.38;;;15.80;99.90;;;;;;5036987;28;20053;-81
2022/05/24 12:20:36;;;;;;;9.10;4.22;;;15.90;99.90;;;;;;5023118;28;20500;-81
2022/05/24 12:23:13;;;;;;;13.93;4.20;;;16.00;99.90;;;;;;5037171;28;20056;-81
2022/05/24 12:26:05;;;;;;;12.00;4.75;;;16.10;99.90;;;;;;5036841;28;20102;-81
2022/05/24 12:28:34;;;;;;;14.10;3.72;;;16.30;99.90;;;;;;5036949;28;20041;-81
2022/05/24 12:31:21;;;;;;;11.25;3.90;;;16.40;99.90;;;;;;5036823;28;20094;-81
2022/05/24 12:33:50;;;;;;;11.90;4.13;;;16.70;99.90;;;;;;5026193;28;20584;-81
2022/05/24 12:36:41;;;;;;;12.93;4.60;;;16.40;99.90;;;;;;5036902;28;20116;-81
2022/05/24 12:39:06;;;;;;;13.90;4.72;;;16.30;99.90;;;;;;5054463;28;20434;-82
2022/05/24 12:41:46;;;;;;;10.10;5.32;;;16.10;99.90;;;;;;5036927;28;20546;-81
2022/05/24 12:44:18;;;;;;;11.55;4.05;;;16.10;99.90;;;;;;5035907;28;20045;-82
2022/05/24 12:47:07;;;;;;;16.30;4.63;;;16.50;99.90;;;;;;5036519;28;20124;-81
2022/05/24 12:49:50;;;;;;;13.00;2.92;;;16.40;99.90;;;;;;5028746;28;20527;-81
2022/05/24 12:52:25;;;;;;;9.07;2.90;;;16.40;99.90;;;;;;5036708;28;20510;-81
2022/05/24 12:54:59;;;;;;;12.70;2.53;;;16.40;99.90;;;;;;5054130;28;20048;-81
2022/05/24 12:57:40;;;;;;;10.75;2.83;;;16.60;99.90;;;;;;5054557;28;20059;-82
2022/05/24 13:00:21;;;;;;;7.60;2.53;;;16.80;99.90;;;;;;5054366;28;20079;-81
2022/05/24 13:02:49;;;;;;;9.40;2.53;;;17.00;99.90;;;;;;5036221;28;20440;-82
2022/05/24 13:05:23;;;;;;;11.27;3.03;;;16.90;99.90;;;;;;5036152;28;20567;-82
2022/05/24 13:07:53;;;;;;;12.30;3.47;;;17.00;99.90;;;;;;5036362;28;20400;-82
2022/05/24 13:10:19;;;;;;;11.15;2.70;;;16.90;99.90;;;;;;5035925;28;20452;-82
2022/05/24 13:12:45;;;;;;;15.00;2.95;;;16.90;99.90;;;;;;5036425;28;20077;-82
2022/05/24 13:15:15;;;;;;;9.00;2.70;;;17.20;99.90;;;;;;5036063;28;20123;-82
2022/05/24 13:17:44;;;;;;;7.10;2.50;;;17.10;99.90;;;;;;5053511;28;20048;-82
2022/05/24 13:20:24;;;;;;;7.28;2.70;;;17.00;99.90;;;;;;5035886;28;20053;-82
2022/05/24 13:22:56;;;;;;;9.13;3.10;;;17.00;99.90;;;;;;5035928;28;20072;-82
2022/05/24 13:25:26;;;;;;;9.88;3.97;;;17.10;99.90;;;;;;5053851;28;20041;-82
2022/05/24 13:28:02;;;;;;;12.10;4.00;;;17.20;99.90;;;;;;5053886;28;20076;-85
2022/05/24 13:33:39;;;;;;;9.13;2.65;;;17.40;99.90;;;;;;5035775;28;20053;-84
2022/05/24 13:36:19;;;;;;;4.93;2.75;;;17.20;99.90;;;;;;5035730;28;20385;-83